Logo AVAMET
Benvolgut visitant, si us plau, ingressa Recuperar contrasenya
AVAMET paisatges

Inforatge Piles

Dades diàries. Acumulats / Últims 30 dies disponibles

Data Temperatura (°C) Humitat rel. (%) Pressió rel. (hPa) Vent (km/h) Precipitació
Mínima Mitjana Màxima Amplitud
tèrmica
Mínima Mitjana Màxima Mínima Mitjana Màxima Predom. Mitjana Ràfega
màxima
Total
(mm)
Índex-n
Mínima Mitjana Màxima Mínima Mitjana Màxima n
0 a 1
P0 max
mm 5'
Dades mensuals acumulades fins l'últim dia disponible
02/2021 7,1 11,4 17,1 14,4 14,4 17,9 23,5 16,4 35 74 96 1.004 1.021 1.039   6,2 66,0 0,0
Dades anuals acumulades fins l'últim dia disponible
2021 2,5 10,0 17,5 13,2 7,8 17,1 28,4 25,9 25 69 98 1.004 1.020 1.039   7,4 77,2 98,4
Últims 30 dies disponibles
28-02-2021 9,9     12,8     15,8 5,9 76 86 93 1.025 1.026 1.027 SSE 5,6 24,1 0,0
27-02-2021 9,3     12,2     15,7 6,4 69 82 91 1.025 1.028 1.031 W 4,0 17,7 0,0
26-02-2021 10,5     12,9     14,6 4,1 84 90 95 1.031 1.032 1.034 NE 3,4 22,5 0,0
25-02-2021 9,2     12,1     15,9 6,7 76 89 95 1.032 1.033 1.035 W 3,7 16,1 0,0
24-02-2021 10,2     12,6     15,7 5,5 82 89 94 1.034 1.037 1.039 W 3,2 19,3 0,0
23-02-2021 10,4     13,0     15,3 4,9 74 84 90 1.028 1.035 1.039 NNE 5,6 24,1 0,0
22-02-2021 11,8     14,2     17,6 5,8 50 68 95 1.010 1.019 1.028 W 8,5 37,0 0,0
21-02-2021 12,8     13,8     15,3 2,5 87 91 94 1.007 1.012 1.019 NNE 9,3 32,2 0,0
20-02-2021 10,1     12,6     14,7 4,6 78 87 93 1.019 1.021 1.023 NE 3,5 22,5 0,0
19-02-2021 7,3     12,3     17,9 10,6 65 87 96 1.021 1.023 1.025 WSW 2,3 14,5 0,0
18-02-2021 9,9     12,3     14,5 4,6 79 87 93 1.020 1.022 1.024 WSW 3,1 16,1 0,0
17-02-2021 8,4     12,3     15,2 6,8 65 84 92 1.024 1.026 1.028 W 2,3 16,1 0,0
16-02-2021 7,1     12,1     17,8 10,7 58 74 84 1.026 1.030 1.036 W 2,7 19,3 0,0
15-02-2021 9,3     12,6     16,1 6,8 65 80 91 1.036 1.037 1.038 W 1,8 16,1 0,0
14-02-2021 10,1     12,9     15,9 5,8 75 83 89 1.029 1.033 1.037 W 3,9 19,3 0,0
13-02-2021 13,0     16,5     21,8 8,8 37 57 84 1.022 1.025 1.029 W 9,0 35,4 0,0
12-02-2021 15,7     18,6     22,7 7,0 35 52 70 1.019 1.020 1.023 W 9,8 46,7 0,0
11-02-2021 13,4     18,3     23,4 10,0 51 58 66 1.019 1.021 1.022 W 8,4 30,6 0,0
10-02-2021 13,7     17,1     20,8 7,1 35 52 71 1.007 1.012 1.019 W 11,3 56,3 0,0
09-02-2021 13,1     15,3     18,2 5,1 53 59 69 1.006 1.010 1.013 W 5,5 30,6 0,0
08-02-2021 12,1     14,8     18,6 6,5 44 60 82 1.004 1.006 1.010 W 13,4 57,9 0,0
07-02-2021 11,5     14,9     17,9 6,4 44 60 77 1.006 1.007 1.009 W 7,2 41,8 0,0
06-02-2021 11,2     14,6     18,9 7,7 61 78 92 1.004 1.005 1.008 W 3,7 20,9 0,0
05-02-2021 12,0     13,2     14,4 2,4 86 89 94 1.007 1.011 1.015 NE 3,4 19,3 0,0
04-02-2021 11,4     13,9     18,5 7,1 59 80 91 1.013 1.015 1.017 W 2,9 14,5 0,0
03-02-2021 14,1     16,3     21,3 7,2 45 65 76 1.015 1.017 1.018 W 5,5 29,0 0,0
02-02-2021 14,6     18,1     23,5 8,9 45 59 71 1.017 1.018 1.020 O 12,4 40,2 0,0
01-02-2021 17,1     19,8     23,2 6,1 41 52 62 1.009 1.013 1.018 W 18,8 66,0 0,0
31-01-2021 13,4     16,4     19,6 6,2 52 58 66 1.011 1.013 1.014 O 16,5 54,7 0,0
30-01-2021 15,7     18,9     21,3 5,6 35 51 63 1.010 1.013 1.019 W 13,2 57,9 0,0
Últims 13 mesos disponibles
01/2021 2,5 8,8 17,5 12,2 7,8 16,4 28,4 25,9 38 64 96 1.008 1.019 1.029 W 8,5 77,2 98,4
12/2020 4,6 9,7 15,8 13,3 13,1 17,5 23,3 18,7 40 65 86 1.004 1.019 1.030 W 8,6 64,4 3,6
11/2020 8,6 13,1 17,2 16,1 14,1 19,9 25,8 17,2 71 83 96 1.009 1.024 1.032 W 4,6 56,3 144,8
10/2020 11,6 15,3 18,9 19,5 18,9 24,1 30,9 19,3 46 64 87 1.001 1.020 1.028 W 6,3 66,0 10,8
09/2020 15,2 20,0 23,9 23,7 24,0 27,9 32,3 17,1 41 70 82 1.014 1.020 1.026 W 6,1 40,2 24,4
08/2020 18,1 23,7 25,6 27,6 24,9 32,2 40,2 22,1 47 73 85 1.007 1.016 1.021 NE 5,7 38,6 10,0
07/2020 20,2 23,1 24,9 26,6 27,9 30,3 36,1 15,9 61 76 84 1.014 1.019 1.023 NE 5,9 46,7 4,0
06/2020 15,7 19,6 23,3 23,8 20,6 28,4 33,6 17,9 44 73 85 1.007 1.017 1.023 NE 6,5 41,8 18,6
05/2020 13,8 17,2 21,0 21,2 20,3 25,6 32,2 18,4 50 72 85 1.008 1.019 1.030 W 5,8 46,7 24,0
04/2020 10,2 13,2 19,2 16,1 15,2 19,4 27,6 17,4 48 80 95 1.008 1.018 1.028 W 5,5 46,7 45,6
03/2020 7,3 11,7 17,5 14,7 11,2 18,3 25,3 18,0 44 74 93 1.008 1.019 1.029 W 7,6 80,5 108,6
02/2020 7,3 11,1 15,9 15,5 14,4 20,5 27,8 20,5 37 71 89 1.016 1.027 1.035 W 5,8 43,5 1,0
01/2020 5,9 7,9 11,4 11,2 12,5 15,4 19,6 13,7 54 76 98 1.019 1.029 1.035 W 6,9 80,5 107,2
Tots els anys disponibles
2020 4,6 15,7 25,6 19,3 11,2 23,5 40,2 35,6 37 73 98 1.001 1.020 1.035 W 6,2 80,5 502,6
2019 3,3 15,4 26,9 18,9 10,7 22,9 38,2 34,9 32 69 94 999 1.020 1.037 SSE 8,6 85,4 594,2
Temperatura (°C)
Humitat relativa (%)
Velocitat del vent i ràfega màxima (km/h)
Direcció del vent (°)
Pressió (hPa)
Precipitació (mm)
Nota sobre les dades: s'avisa a l'usuari de la provisionalitat i no oficialitat d'aquestes dades
Logo AVAMET blanc
Web allotjada a Sollutia
Llicència de Creative CommonsLa web d'AVAMET i els seus continguts estan subjectes a una llicència de
Reconeixement - No Comercial - Compartir igual
Avís legal - Política de privacitat - Política de cookies
NOVES ESTACIONS: Sollana - l'Albufera/Tancat de Milia (Soci),  Barx - la Falaguera (Soci), l'Alqueria d'Asnar (Soci), Barx (Soci), Font de la Figuera - El Carrascal, Sagunt - Casc Urbà, Tous & Casinos - Aj. (Inforatge), Alcoi - Círculo Industrial (Soci), Requena - San Antonio (Soci), Beniatjar (Soci), Elx - Carrús (Soci), Castelló de la Plana - Serradal (Soci), Teulada - El Pla (Soci), Dénia - la Xara (Soci) - - -